Time;durP1;ratioP1;P1;durP2;ratioP2;P2;SDS_P1;SDS_P2;PMS_P1;PMS_P2;Temp;Humidity;BMP_temperature;BMP_pressure;BME280_temperature;BME280_humidity;BME280_pressure;Samples;Min_cycle;Max_cycle;Signal;HPM_P1;HPM_P2
2022/08/11 00:01:16;;;;;;;9.48;7.37;;;;;;;;;;4379952;32;20140;-67
2022/08/11 00:03:54;;;;;;;10.73;7.37;;;;;;;;;;4379804;32;20073;-67
2022/08/11 00:06:34;;;;;;;11.50;7.90;;;;;;;;;;4379223;32;20146;-68
2022/08/11 00:09:13;;;;;;;9.27;7.30;;;;;;;;;;4378826;32;20081;-67
2022/08/11 00:11:47;;;;;;;9.93;7.75;;;;;;;;;;4391811;32;20115;-68
2022/08/11 00:14:22;;;;;;;8.80;6.85;;;;;;;;;;4391957;32;20093;-67
2022/08/11 00:17:03;;;;;;;9.98;8.13;;;;;;;;;;4392391;32;20090;-67
2022/08/11 00:19:33;;;;;;;10.50;7.93;;;;;;;;;;4393402;32;20093;-67
2022/08/11 00:22:00;;;;;;;11.15;7.07;;;;;;;;;;4391605;32;20547;-67
2022/08/11 00:24:33;;;;;;;9.10;7.45;;;;;;;;;;4391780;32;20093;-67
2022/08/11 00:27:00;;;;;;;9.15;7.57;;;;;;;;;;4392368;32;20104;-67
2022/08/11 00:29:27;;;;;;;9.52;7.03;;;;;;;;;;4392925;32;20130;-67
2022/08/11 00:31:55;;;;;;;8.88;7.30;;;;;;;;;;4393342;32;20070;-67
2022/08/11 00:34:27;;;;;;;8.45;6.60;;;;;;;;;;4379506;32;20097;-68
2022/08/11 00:37:05;;;;;;;9.52;7.12;;;;;;;;;;4392672;32;20509;-67
2022/08/11 00:39:34;;;;;;;10.70;7.15;;;;;;;;;;4378866;32;20173;-67
2022/08/11 00:42:19;;;;;;;9.25;6.93;;;;;;;;;;4378833;32;20067;-66
2022/08/11 00:45:23;;;;;;;10.32;7.03;;;;;;;;;;4392701;32;20070;-68
2022/08/11 00:47:59;;;;;;;8.85;6.85;;;;;;;;;;4391238;32;20113;-66
2022/08/11 00:51:09;;;;;;;9.73;7.72;;;;;;;;;;4391457;32;20070;-68
2022/08/11 00:53:35;;;;;;;9.23;7.43;;;;;;;;;;4391056;32;20452;-67
2022/08/11 00:56:02;;;;;;;9.80;7.70;;;;;;;;;;4392589;32;20065;-67
2022/08/11 00:59:07;;;;;;;9.50;6.87;;;;;;;;;;4391079;32;20437;-68
2022/08/11 01:01:37;;;;;;;9.68;7.40;;;;;;;;;;4378514;32;20088;-68
2022/08/11 01:04:31;;;;;;;9.50;7.90;;;;;;;;;;4391324;32;20157;-67
2022/08/11 01:07:30;;;;;;;13.05;7.47;;;;;;;;;;4391329;32;20085;-66
2022/08/11 01:10:20;;;;;;;10.07;7.03;;;;;;;;;;4391270;32;20089;-68
2022/08/11 01:12:56;;;;;;;9.52;7.37;;;;;;;;;;4390696;32;20077;-67
2022/08/11 01:15:31;;;;;;;9.95;7.30;;;;;;;;;;4391064;32;20166;-68
2022/08/11 01:18:23;;;;;;;10.02;7.32;;;;;;;;;;4391132;32;20077;-67
2022/08/11 01:21:08;;;;;;;10.07;7.62;;;;;;;;;;4390320;32;20472;-68
2022/08/11 01:23:52;;;;;;;11.48;7.78;;;;;;;;;;4390576;32;20169;-67
2022/08/11 01:26:50;;;;;;;9.98;7.65;;;;;;;;;;4390521;32;20096;-67
2022/08/11 01:29:44;;;;;;;11.52;7.60;;;;;;;;;;4392129;32;20066;-67
2022/08/11 01:32:59;;;;;;;11.52;7.43;;;;;;;;;;4391943;32;20150;-67
2022/08/11 01:35:47;;;;;;;11.70;7.75;;;;;;;;;;4346877;32;20555;-68
2022/08/11 01:38:19;;;;;;;11.50;6.87;;;;;;;;;;4378410;32;20089;-67
2022/08/11 01:41:04;;;;;;;9.10;7.20;;;;;;;;;;4392299;32;20085;-67
2022/08/11 01:46:56;;;;;;;11.40;7.43;;;;;;;;;;4392252;32;20073;-67
2022/08/11 01:49:38;;;;;;;9.48;7.28;;;;;;;;;;4378335;32;20157;-67
2022/08/11 01:52:28;;;;;;;10.15;7.55;;;;;;;;;;4377573;32;20536;-67
2022/08/11 01:55:25;;;;;;;8.52;7.35;;;;;;;;;;4391124;32;20098;-67
2022/08/11 01:58:01;;;;;;;16.65;8.48;;;;;;;;;;4391946;32;20149;-67
2022/08/11 02:00:29;;;;;;;11.27;8.48;;;;;;;;;;4377643;32;20161;-67
2022/08/11 02:03:11;;;;;;;11.45;7.95;;;;;;;;;;4365865;32;20097;-67
2022/08/11 02:05:44;;;;;;;13.10;8.43;;;;;;;;;;4390252;32;20437;-67
2022/08/11 02:08:48;;;;;;;11.32;8.18;;;;;;;;;;4377750;32;20170;-66
2022/08/11 02:11:31;;;;;;;13.90;9.13;;;;;;;;;;4390298;32;20078;-68
2022/08/11 02:14:12;;;;;;;15.50;9.20;;;;;;;;;;4378616;32;20484;-66
2022/08/11 02:17:13;;;;;;;16.62;9.32;;;;;;;;;;4391836;32;20141;-68
2022/08/11 02:26:01;;;;;;;15.82;8.80;;;;;;;;;;4390667;32;20073;-67
2022/08/11 02:28:34;;;;;;;19.15;9.48;;;;;;;;;;4378090;32;20520;-68
2022/08/11 02:34:30;;;;;;;16.75;9.10;;;;;;;;;;4391143;32;20082;-68
2022/08/11 02:37:15;;;;;;;13.80;9.00;;;;;;;;;;4377131;32;20094;-66
2022/08/11 02:39:54;;;;;;;11.75;8.25;;;;;;;;;;4390268;32;20081;-67
2022/08/11 02:42:45;;;;;;;11.73;8.80;;;;;;;;;;4377562;32;20089;-68
2022/08/11 02:45:36;;;;;;;14.00;8.15;;;;;;;;;;4390115;32;20082;-67
2022/08/11 02:51:42;;;;;;;12.88;8.73;;;;;;;;;;4373301;32;20094;-67
2022/08/11 02:54:34;;;;;;;15.45;9.02;;;;;;;;;;4389931;32;20070;-67
2022/08/11 02:57:20;;;;;;;11.90;8.43;;;;;;;;;;4391882;32;20535;-67
2022/08/11 03:00:06;;;;;;;13.93;8.25;;;;;;;;;;4389784;32;20523;-67
2022/08/11 03:03:09;;;;;;;12.65;8.55;;;;;;;;;;4390005;32;20074;-67
2022/08/11 03:05:57;;;;;;;8.85;7.78;;;;;;;;;;4390115;32;20142;-67
2022/08/11 03:08:29;;;;;;;9.75;7.97;;;;;;;;;;4391198;32;20145;-67
2022/08/11 03:17:28;;;;;;;9.90;8.38;;;;;;;;;;4378899;32;20070;-67
2022/08/11 03:20:20;;;;;;;10.83;7.97;;;;;;;;;;4364507;32;20153;-67
2022/08/11 03:23:08;;;;;;;10.57;7.97;;;;;;;;;;4390522;32;20085;-66
2022/08/11 03:25:45;;;;;;;11.70;8.07;;;;;;;;;;4377210;32;20500;-67
2022/08/11 03:28:24;;;;;;;12.32;7.65;;;;;;;;;;4391522;32;20062;-67
2022/08/11 03:31:01;;;;;;;8.93;7.68;;;;;;;;;;4389556;32;20542;-67
2022/08/11 03:36:45;;;;;;;11.07;7.07;;;;;;;;;;4389452;32;20089;-67
2022/08/11 03:39:21;;;;;;;10.18;8.70;;;;;;;;;;4389568;32;20093;-67
2022/08/11 03:42:14;;;;;;;10.23;8.60;;;;;;;;;;4389269;32;20078;-67
2022/08/11 03:44:59;;;;;;;11.93;8.13;;;;;;;;;;4366046;32;20090;-67
2022/08/11 03:47:33;;;;;;;8.98;7.57;;;;;;;;;;4393934;32;20061;-66
2022/08/11 03:50:23;;;;;;;10.77;8.25;;;;;;;;;;4392177;32;20512;-67
2022/08/11 03:53:11;;;;;;;9.18;6.82;;;;;;;;;;4379843;32;20065;-67
2022/08/11 03:56:02;;;;;;;8.90;7.28;;;;;;;;;;4379502;32;20085;-67
2022/08/11 03:58:56;;;;;;;9.15;7.50;;;;;;;;;;4391938;32;20066;-67
2022/08/11 04:02:12;;;;;;;9.90;7.57;;;;;;;;;;4392155;32;20459;-67
2022/08/11 04:05:23;;;;;;;9.75;7.75;;;;;;;;;;4336428;32;20527;-66
2022/08/11 04:08:29;;;;;;;13.25;8.00;;;;;;;;;;4360937;32;20152;-66
2022/08/11 04:11:30;;;;;;;9.73;8.27;;;;;;;;;;4404396;32;20074;-66
2022/08/11 04:15:58;;;;;;;10.93;8.25;;;;;;;;;;4391788;32;20219;-66
2022/08/11 04:17:05;;;;;;;10.80;8.52;;;;;;;;;;4391896;32;20070;-67
2022/08/11 04:19:51;;;;;;;12.98;8.52;;;;;;;;;;4391917;32;20065;-66
2022/08/11 04:22:50;;;;;;;10.23;8.00;;;;;;;;;;4378923;32;20500;-67
2022/08/11 04:25:34;;;;;;;9.82;7.05;;;;;;;;;;4364479;32;20078;-67
2022/08/11 04:28:25;;;;;;;10.55;7.82;;;;;;;;;;4391948;32;20070;-67
2022/08/11 04:31:08;;;;;;;12.32;7.68;;;;;;;;;;4393134;32;20084;-67
2022/08/11 04:34:01;;;;;;;10.52;6.62;;;;;;;;;;4391439;32;20081;-66
2022/08/11 04:39:59;;;;;;;7.40;5.97;;;;;;;;;;4393450;32;20070;-66
2022/08/11 04:45:37;;;;;;;11.77;6.32;;;;;;;;;;4381959;32;20080;-67
2022/08/11 05:08:03;;;;;;;6.93;5.47;;;;;;;;;;4392235;32;20089;-67
2022/08/11 05:11:03;;;;;;;6.95;5.55;;;;;;;;;;4378386;32;20081;-67
2022/08/11 05:37:09;;;;;;;8.25;6.10;;;;;;;;;;4390516;32;20101;-67
2022/08/11 05:56:35;;;;;;;6.97;6.15;;;;;;;;;;4390449;32;20093;-68
2022/08/11 05:59:02;;;;;;;8.90;6.55;;;;;;;;;;4378295;32;20154;-66
2022/08/11 06:01:33;;;;;;;8.82;7.20;;;;;;;;;;4390336;32;20161;-68
2022/08/11 06:04:13;;;;;;;7.10;5.47;;;;;;;;;;4390419;32;20074;-68
2022/08/11 06:07:02;;;;;;;9.07;7.47;;;;;;;;;;4366348;32;20452;-67
2022/08/11 06:09:37;;;;;;;9.85;6.97;;;;;;;;;;4378886;32;20071;-67
2022/08/11 06:12:15;;;;;;;8.25;7.15;;;;;;;;;;4390036;32;20100;-67
2022/08/11 06:14:44;;;;;;;9.90;7.07;;;;;;;;;;4390126;32;20077;-68
2022/08/11 06:17:12;;;;;;;8.50;7.12;;;;;;;;;;4390555;32;20078;-66
2022/08/11 06:19:47;;;;;;;8.18;6.47;;;;;;;;;;4378043;32;20078;-67
2022/08/11 06:22:20;;;;;;;9.30;6.70;;;;;;;;;;4364684;32;20533;-67
2022/08/11 06:24:59;;;;;;;7.87;6.87;;;;;;;;;;4391324;32;20086;-68
2022/08/11 06:27:28;;;;;;;9.15;6.70;;;;;;;;;;4377255;32;20106;-66
2022/08/11 06:29:56;;;;;;;10.38;6.57;;;;;;;;;;4365342;32;20093;-66
2022/08/11 06:32:37;;;;;;;8.20;6.45;;;;;;;;;;4365276;32;20093;-67
2022/08/11 06:35:18;;;;;;;9.23;6.80;;;;;;;;;;4377486;32;20086;-67
2022/08/11 06:37:48;;;;;;;7.78;6.35;;;;;;;;;;4391156;32;20180;-66
2022/08/11 06:40:35;;;;;;;9.15;5.72;;;;;;;;;;4377690;32;20093;-66
2022/08/11 06:43:19;;;;;;;7.15;5.32;;;;;;;;;;4390288;32;20136;-67
2022/08/11 06:45:46;;;;;;;8.13;5.80;;;;;;;;;;4377328;32;20137;-67
2022/08/11 06:48:17;;;;;;;6.00;5.00;;;;;;;;;;4391131;32;20097;-66
2022/08/11 06:53:57;;;;;;;9.68;5.62;;;;;;;;;;4379385;32;20090;-66
2022/08/11 07:02:27;;;;;;;6.55;5.22;;;;;;;;;;4390204;32;20097;-67
2022/08/11 07:05:20;;;;;;;7.37;5.03;;;;;;;;;;4376829;32;20495;-66
2022/08/11 07:17:21;;;;;;;5.55;4.78;;;;;;;;;;4390673;32;20089;-67
2022/08/11 07:31:34;;;;;;;6.15;3.78;;;;;;;;;;4382056;32;20076;-68
2022/08/11 07:34:09;;;;;;;5.60;4.25;;;;;;;;;;4367716;32;20093;-66
2022/08/11 07:36:40;;;;;;;5.57;4.30;;;;;;;;;;4392871;32;20101;-68
2022/08/11 07:39:10;;;;;;;5.95;4.50;;;;;;;;;;4392518;32;20140;-67
2022/08/11 07:41:37;;;;;;;5.43;4.00;;;;;;;;;;4379710;32;20456;-67
2022/08/11 07:44:08;;;;;;;6.45;4.28;;;;;;;;;;4367073;32;20159;-67
2022/08/11 07:52:31;;;;;;;7.25;4.68;;;;;;;;;;4392673;32;20164;-67
2022/08/11 07:55:17;;;;;;;6.20;4.05;;;;;;;;;;4391948;32;20085;-67
2022/08/11 08:20:13;;;;;;;4.40;3.67;;;;;;;;;;4393037;32;20175;-67
2022/08/11 08:22:40;;;;;;;5.82;4.40;;;;;;;;;;4392173;32;20062;-67
2022/08/11 08:25:08;;;;;;;6.07;4.40;;;;;;;;;;4379097;32;20096;-68
2022/08/11 08:27:38;;;;;;;5.28;4.28;;;;;;;;;;4366298;32;20573;-67
2022/08/11 08:32:51;;;;;;;6.43;4.30;;;;;;;;;;4381424;32;20101;-67
2022/08/11 08:35:20;;;;;;;5.37;4.18;;;;;;;;;;4366692;32;20142;-68
2022/08/11 08:37:50;;;;;;;8.10;4.20;;;;;;;;;;4391047;32;20081;-68
2022/08/11 08:40:18;;;;;;;5.82;4.10;;;;;;;;;;4366587;32;20154;-67
2022/08/11 08:42:58;;;;;;;5.00;4.00;;;;;;;;;;4379222;32;20118;-67
2022/08/11 08:45:26;;;;;;;5.00;4.12;;;;;;;;;;4378409;32;20109;-67
2022/08/11 08:47:58;;;;;;;4.60;3.58;;;;;;;;;;4378828;32;20585;-67
2022/08/11 08:51:33;;;;;;;6.07;3.90;;;;;;;;;;4391451;32;20085;-67
2022/08/11 08:53:31;;;;;;;5.05;3.67;;;;;;;;;;4391375;32;20501;-67
2022/08/11 08:56:02;;;;;;;7.25;3.87;;;;;;;;;;4379674;32;20071;-67
2022/08/11 08:58:29;;;;;;;5.57;3.87;;;;;;;;;;4378563;32;20151;-67
2022/08/11 09:00:57;;;;;;;4.50;3.65;;;;;;;;;;4378448;32;20086;-67
2022/08/11 09:03:26;;;;;;;5.72;3.47;;;;;;;;;;4378478;32;20078;-69
2022/08/11 09:05:57;;;;;;;4.30;3.90;;;;;;;;;;4378744;32;20080;-67
2022/08/11 09:08:24;;;;;;;5.30;3.65;;;;;;;;;;4391432;32;20088;-66
2022/08/11 09:11:49;;;;;;;7.05;3.78;;;;;;;;;;4390729;32;20082;-68
2022/08/11 09:13:43;;;;;;;4.43;3.65;;;;;;;;;;4380494;32;20088;-67
2022/08/11 09:16:10;;;;;;;4.95;3.92;;;;;;;;;;4378387;32;20104;-68
2022/08/11 09:18:38;;;;;;;6.05;4.00;;;;;;;;;;4391107;32;20093;-67
2022/08/11 09:21:05;;;;;;;6.32;4.50;;;;;;;;;;4390764;32;20166;-70
2022/08/11 09:29:04;;;;;;;6.62;3.80;;;;;;;;;;4390868;32;20090;-67
2022/08/11 09:31:34;;;;;;;5.57;3.42;;;;;;;;;;4390681;32;20189;-68
2022/08/11 09:34:02;;;;;;;5.32;3.90;;;;;;;;;;4378932;32;20085;-68
2022/08/11 09:42:04;;;;;;;4.90;3.37;;;;;;;;;;4392896;32;20172;-68
2022/08/11 09:44:48;;;;;;;3.87;3.12;;;;;;;;;;4395840;32;20182;-70
2022/08/11 09:47:23;;;;;;;5.78;3.83;;;;;;;;;;4391320;32;20100;-68
2022/08/11 09:49:58;;;;;;;5.87;3.70;;;;;;;;;;4391330;32;20086;-66
2022/08/11 09:52:25;;;;;;;4.35;3.58;;;;;;;;;;4390925;32;20085;-66
2022/08/11 09:54:53;;;;;;;6.53;4.05;;;;;;;;;;4377742;32;20074;-66
2022/08/11 10:00:08;;;;;;;5.60;4.40;;;;;;;;;;4380145;32;20085;-67
2022/08/11 10:02:47;;;;;;;6.15;4.10;;;;;;;;;;4391728;32;20073;-68
2022/08/11 10:08:06;;;;;;;5.32;3.80;;;;;;;;;;4389993;32;20179;-68
2022/08/11 10:10:36;;;;;;;5.03;3.75;;;;;;;;;;4364956;32;20093;-68
2022/08/11 10:13:09;;;;;;;4.87;3.42;;;;;;;;;;4377282;32;20078;-66
2022/08/11 10:15:37;;;;;;;5.50;3.80;;;;;;;;;;4364994;32;20159;-67
2022/08/11 10:21:06;;;;;;;;;;;;;;;;;;4391825;32;20086;-68
2022/08/11 10:33:58;;;;;;;5.28;3.85;;;;;;;;;;4390515;32;20185;-67
2022/08/11 10:34:42;;;;;;;6.40;3.80;;;;;;;;;;4390603;32;20081;-68
2022/08/11 10:37:09;;;;;;;5.53;3.30;;;;;;;;;;4377115;32;20085;-67
2022/08/11 10:39:38;;;;;;;4.05;3.30;;;;;;;;;;4364973;32;20496;-67
2022/08/11 10:44:53;;;;;;;8.55;4.03;;;;;;;;;;4390477;32;20496;-68
2022/08/11 10:47:35;;;;;;;7.60;4.30;;;;;;;;;;4364665;32;20089;-68
2022/08/11 10:58:48;;;;;;;4.62;3.65;;;;;;;;;;4382360;32;20072;-67
2022/08/11 11:01:26;;;;;;;7.65;4.10;;;;;;;;;;4369566;32;20073;-68
2022/08/11 11:03:59;;;;;;;3.80;3.30;;;;;;;;;;4380273;32;20439;-66
2022/08/11 11:06:45;;;;;;;4.40;3.45;;;;;;;;;;4379773;32;20147;-68
2022/08/11 11:09:14;;;;;;;6.53;3.80;;;;;;;;;;4380144;32;20101;-68
2022/08/11 11:20:15;;;;;;;5.15;3.55;;;;;;;;;;4392668;32;19981;-67
2022/08/11 11:22:46;;;;;;;7.25;3.47;;;;;;;;;;4368058;32;20076;-67
2022/08/11 11:26:05;;;;;;;4.10;3.55;;;;;;;;;;4392900;32;20085;-68
2022/08/11 11:28:56;;;;;;;4.22;3.40;;;;;;;;;;4393193;32;20085;-67
2022/08/11 11:31:31;;;;;;;5.95;3.62;;;;;;;;;;4394127;32;20180;-68
2022/08/11 11:34:40;;;;;;;4.75;3.65;;;;;;;;;;4380539;32;20092;-67
2022/08/11 11:37:07;;;;;;;4.32;3.50;;;;;;;;;;4379250;32;20189;-68
2022/08/11 11:39:35;;;;;;;7.28;3.25;;;;;;;;;;4393556;32;20507;-67
2022/08/11 11:42:09;;;;;;;4.55;3.85;;;;;;;;;;4379688;32;20082;-67
2022/08/11 11:44:38;;;;;;;4.85;3.22;;;;;;;;;;4393612;32;20081;-68
2022/08/11 11:47:06;;;;;;;4.95;3.70;;;;;;;;;;4380260;32;20086;-67
2022/08/11 11:49:34;;;;;;;4.07;3.03;;;;;;;;;;4379928;32;20436;-67
2022/08/11 11:52:01;;;;;;;5.15;3.70;;;;;;;;;;4392271;32;20081;-68
2022/08/11 11:54:32;;;;;;;6.72;3.90;;;;;;;;;;4393444;32;20085;-67
2022/08/11 12:01:14;;;;;;;4.97;3.30;;;;;;;;;;4379920;32;20087;-67
2022/08/11 12:02:35;;;;;;;6.05;3.60;;;;;;;;;;4392258;32;20097;-67
2022/08/11 12:05:02;;;;;;;5.68;3.22;;;;;;;;;;4397979;32;20093;-68
2022/08/11 12:10:16;;;;;;;6.35;4.25;;;;;;;;;;4393214;32;20073;-68
2022/08/11 12:15:30;;;;;;;5.05;3.10;;;;;;;;;;4381670;32;20065;-68
2022/08/11 12:17:58;;;;;;;4.55;3.55;;;;;;;;;;4379201;32;20092;-67
2022/08/11 12:20:25;;;;;;;6.85;3.80;;;;;;;;;;4379315;32;20123;-67
2022/08/11 12:28:23;;;;;;;6.20;4.05;;;;;;;;;;4391608;32;20081;-67
2022/08/11 12:30:53;;;;;;;5.65;3.60;;;;;;;;;;4391633;32;20157;-67
2022/08/11 12:33:20;;;;;;;4.75;3.53;;;;;;;;;;4391481;32;20074;-67
2022/08/11 12:35:51;;;;;;;4.62;3.65;;;;;;;;;;4378705;32;20093;-67
2022/08/11 12:38:19;;;;;;;4.93;3.75;;;;;;;;;;4379622;32;20108;-68
2022/08/11 12:46:22;;;;;;;;;;;;;;;;;;4392326;32;20150;-66
2022/08/11 12:51:57;;;;;;;6.70;3.85;;;;;;;;;;4380596;32;20073;-68
2022/08/11 12:54:50;;;;;;;5.45;4.05;;;;;;;;;;4392729;32;20151;-67
2022/08/11 13:06:01;;;;;;;6.68;3.50;;;;;;;;;;4391072;32;20082;-68
2022/08/11 13:08:30;;;;;;;5.85;4.00;;;;;;;;;;4391083;32;20092;-68
2022/08/11 13:13:46;;;;;;;7.07;4.43;;;;;;;;;;4380778;32;20089;-67
2022/08/11 13:16:13;;;;;;;7.28;6.37;;;;;;;;;;4390525;32;20069;-67
2022/08/11 13:18:41;;;;;;;8.75;7.10;;;;;;;;;;4392165;32;20092;-68
2022/08/11 13:21:10;;;;;;;11.80;8.70;;;;;;;;;;4365883;32;20077;-68
2022/08/11 13:23:38;;;;;;;11.77;9.35;;;;;;;;;;4391082;32;20100;-68
2022/08/11 13:26:06;;;;;;;14.77;11.35;;;;;;;;;;4378385;32;20100;-67
2022/08/11 13:28:35;;;;;;;22.90;16.50;;;;;;;;;;4390987;32;20157;-68
2022/08/11 13:33:48;;;;;;;17.90;13.07;;;;;;;;;;3857171;37;20054;-68
2022/08/11 13:36:20;;;;;;;18.83;15.63;;;;;;;;;;4380779;32;20524;-67
2022/08/11 13:38:47;;;;;;;23.62;18.77;;;;;;;;;;4381326;32;20095;-69
2022/08/11 13:44:00;;;;;;;20.83;16.80;;;;;;;;;;4408115;32;20085;-68
2022/08/11 13:46:27;;;;;;;18.20;14.80;;;;;;;;;;4419824;32;20603;-69
2022/08/11 13:48:55;;;;;;;20.20;14.27;;;;;;;;;;4405180;32;20085;-67
2022/08/11 13:51:30;;;;;;;16.23;14.13;;;;;;;;;;4380284;32;20144;-68
2022/08/11 13:54:20;;;;;;;16.87;13.65;;;;;;;;;;4394053;32;20093;-68
2022/08/11 13:56:53;;;;;;;13.75;10.32;;;;;;;;;;4405638;32;20081;-67
2022/08/11 13:59:23;;;;;;;12.35;10.10;;;;;;;;;;4392434;32;20081;-68
2022/08/11 14:01:59;;;;;;;10.65;8.30;;;;;;;;;;4405878;32;20508;-67
2022/08/11 14:04:38;;;;;;;10.88;8.68;;;;;;;;;;4406362;32;20075;-68
2022/08/11 14:07:09;;;;;;;10.38;7.85;;;;;;;;;;4412805;32;20537;-67
2022/08/11 14:09:38;;;;;;;10.20;8.23;;;;;;;;;;4377799;32;20085;-67
2022/08/11 14:15:18;;;;;;;9.43;6.60;;;;;;;;;;4392005;32;20096;-67
2022/08/11 14:17:51;;;;;;;7.43;6.28;;;;;;;;;;4365172;32;20077;-67
2022/08/11 14:20:19;;;;;;;7.70;6.20;;;;;;;;;;4377621;32;20479;-67
2022/08/11 14:22:46;;;;;;;9.65;5.10;;;;;;;;;;4390223;32;20078;-67
2022/08/11 14:25:16;;;;;;;7.03;4.22;;;;;;;;;;4390509;32;20100;-68
2022/08/11 14:27:48;;;;;;;7.35;4.07;;;;;;;;;;4383160;32;20081;-69
2022/08/11 14:33:15;;;;;;;11.30;4.20;;;;;;;;;;4364449;32;20081;-67
2022/08/11 14:35:42;;;;;;;6.37;3.83;;;;;;;;;;4404437;32;20088;-67
2022/08/11 14:38:09;;;;;;;6.45;3.55;;;;;;;;;;4403680;32;20507;-68
2022/08/11 14:48:53;;;;;;;5.17;3.30;;;;;;;;;;4382432;32;20078;-68
2022/08/11 14:51:21;;;;;;;4.47;3.13;;;;;;;;;;4379238;32;20604;-68
2022/08/11 14:56:34;;;;;;;4.70;3.03;;;;;;;;;;4367493;32;20104;-67
2022/08/11 14:56:36;;;;;;;3.78;2.85;;;;;;;;;;4382156;32;20089;-67
2022/08/11 14:59:02;;;;;;;5.93;2.85;;;;;;;;;;4379551;32;20096;-68
2022/08/11 15:04:15;;;;;;;6.03;3.60;;;;;;;;;;4381535;32;20077;-67
2022/08/11 15:06:42;;;;;;;4.85;3.30;;;;;;;;;;4379496;32;20078;-69
2022/08/11 15:09:09;;;;;;;3.75;3.08;;;;;;;;;;4366603;32;20090;-67
2022/08/11 15:17:07;;;;;;;5.22;3.35;;;;;;;;;;4381446;32;20077;-67
2022/08/11 15:19:35;;;;;;;4.75;3.15;;;;;;;;;;4378785;32;20516;-67
2022/08/11 15:24:47;;;;;;;5.30;3.50;;;;;;;;;;4379124;32;20069;-69
2022/08/11 15:38:22;;;;;;;4.45;3.08;;;;;;;;;;4380792;32;20514;-67
2022/08/11 15:46:39;;;;;;;4.50;2.95;;;;;;;;;;4380670;32;20101;-68
2022/08/11 15:49:17;;;;;;;7.00;3.30;;;;;;;;;;4392899;32;20144;-67
2022/08/11 15:52:07;;;;;;;11.30;3.42;;;;;;;;;;4378275;32;20077;-69
2022/08/11 15:54:38;;;;;;;5.10;3.20;;;;;;;;;;4392327;32;20080;-68
2022/08/11 15:57:05;;;;;;;5.18;3.60;;;;;;;;;;4378674;32;20178;-67
2022/08/11 16:05:10;;;;;;;7.70;3.53;;;;;;;;;;4380586;32;20586;-67
2022/08/11 16:07:38;;;;;;;5.18;3.45;;;;;;;;;;4378766;32;20157;-66
2022/08/11 16:10:14;;;;;;;6.47;3.50;;;;;;;;;;4378760;32;20065;-67
2022/08/11 16:16:12;;;;;;;;;;;;;;;;;;4378880;32;20086;-67
2022/08/11 16:18:15;;;;;;;5.28;3.37;;;;;;;;;;4380684;32;19973;-68
2022/08/11 16:20:43;;;;;;;7.20;3.85;;;;;;;;;;4377994;32;20537;-68
2022/08/11 16:23:10;;;;;;;7.20;4.30;;;;;;;;;;4378411;32;20078;-67
2022/08/11 16:25:37;;;;;;;6.57;3.83;;;;;;;;;;4378190;32;20089;-67
2022/08/11 16:28:06;;;;;;;7.28;3.90;;;;;;;;;;4378128;32;20520;-66
2022/08/11 16:30:39;;;;;;;6.05;4.40;;;;;;;;;;4378661;32;20073;-66
2022/08/11 16:33:07;;;;;;;6.80;4.32;;;;;;;;;;4353022;32;20160;-67
2022/08/11 16:38:34;;;;;;;5.35;3.97;;;;;;;;;;4380340;32;20081;-67
2022/08/11 16:41:13;;;;;;;7.53;4.25;;;;;;;;;;4378955;32;20065;-68
2022/08/11 16:49:23;;;;;;;8.63;4.17;;;;;;;;;;4385520;32;20149;-67
2022/08/11 16:51:50;;;;;;;8.10;4.40;;;;;;;;;;4379166;32;20081;-67
2022/08/11 16:54:18;;;;;;;7.57;4.50;;;;;;;;;;4365509;32;20081;-67
2022/08/11 16:56:51;;;;;;;8.20;4.07;;;;;;;;;;4377749;32;20101;-67
2022/08/11 16:59:33;;;;;;;10.85;4.82;;;;;;;;;;4377938;32;20191;-67
2022/08/11 17:02:04;;;;;;;12.18;5.37;;;;;;;;;;4378034;32;20165;-66
2022/08/11 17:13:28;;;;;;;8.70;5.15;;;;;;;;;;4392001;32;20070;-68
2022/08/11 17:16:09;;;;;;;10.38;5.00;;;;;;;;;;4353175;32;20092;-67
2022/08/11 17:18:56;;;;;;;10.40;4.87;;;;;;;;;;4379216;32;20078;-67
2022/08/11 17:21:28;;;;;;;9.80;4.78;;;;;;;;;;4365457;32;20062;-68
2022/08/11 17:24:04;;;;;;;9.52;4.80;;;;;;;;;;4377509;32;20158;-67
2022/08/11 17:26:57;;;;;;;10.15;4.68;;;;;;;;;;4377421;32;20101;-67
2022/08/11 17:29:37;;;;;;;6.05;4.00;;;;;;;;;;4377888;32;20162;-68
2022/08/11 17:37:42;;;;;;;8.50;3.72;;;;;;;;;;4375499;32;20075;-68
2022/08/11 17:40:11;;;;;;;5.87;2.97;;;;;;;;;;4374506;32;20127;-68
2022/08/11 17:48:26;;;;;;;8.37;3.40;;;;;;;;;;4374766;32;20070;-67
2022/08/11 17:50:54;;;;;;;9.60;3.87;;;;;;;;;;4363819;32;20464;-67
2022/08/11 18:01:40;;;;;;;7.07;3.17;;;;;;;;;;4375053;32;20150;-68
2022/08/11 18:04:09;;;;;;;9.25;3.37;;;;;;;;;;4362870;32;20066;-67
2022/08/11 18:06:39;;;;;;;6.82;3.40;;;;;;;;;;4362046;32;20090;-67
